Terminal Aerodrome Forecast
Issued by NWS

Home | Current Version | Previous Version | Text Only | Print | Product List | Glossary On
Versions: 1 2 3 4 5 6 7 8 9 10 11 12 13 14 15 16 17 18 19 20 21 22 23 24 25 26 27 28 29 30 31 32 33 34 35 36 37 38 39 40 41 42
466
FTUS43 KGRB 221040 AAB
TAFATW
TAF AMD
KATW 221040Z 2211/2306 04013G20KT 2SM BR OVC002
      TEMPO 2211/2212 1SM -RASN BR
     FM221200 04017G25KT 1 1/2SM -RASN OVC003
     FM230000 04016G25KT 1SM -SN BR OVC003
     FM230200 03017G25KT 3SM -FZDZSN OVC008=

USA.gov is the U.S. government's official web portal to all federal, state and local government web resources and services.